createdAt,value
2023-03-03T00:00:52.262Z,14.60
2023-03-03T00:03:22.341Z,15.07
2023-03-03T00:05:50.689Z,15.30
2023-03-03T00:08:19.256Z,15.23
2023-03-03T00:10:47.157Z,14.02
2023-03-03T00:13:23.208Z,14.23
2023-03-03T00:15:51.880Z,14.02
2023-03-03T00:18:24.082Z,15.75
2023-03-03T00:23:40.537Z,15.30
2023-03-03T00:26:21.052Z,16.17
2023-03-03T00:28:54.576Z,13.52
2023-03-03T00:31:29.765Z,14.18
2023-03-03T00:34:20.261Z,15.75
2023-03-03T00:36:49.647Z,15.07
2023-03-03T00:39:34.126Z,15.30
2023-03-03T00:42:05.304Z,14.60
2023-03-03T00:44:45.636Z,15.05
2023-03-03T00:47:33.879Z,15.05
2023-03-03T00:50:07.363Z,14.25
2023-03-03T00:52:40.112Z,14.15
2023-03-03T00:57:35.766Z,14.65
2023-03-03T01:00:05.321Z,14.02
2023-03-03T01:02:33.169Z,13.30
2023-03-03T01:05:01.032Z,14.52
2023-03-03T01:07:28.369Z,13.80
2023-03-03T01:09:55.729Z,13.85
2023-03-03T01:12:24.289Z,13.90
2023-03-03T01:14:53.024Z,13.15
2023-03-03T01:17:20.539Z,13.43
2023-03-03T01:19:48.313Z,13.60
2023-03-03T01:22:16.053Z,13.48
2023-03-03T01:24:43.452Z,15.68
2023-03-03T01:27:11.371Z,13.77
2023-03-03T01:29:38.880Z,13.05
2023-03-03T01:32:06.423Z,13.62
2023-03-03T01:34:34.120Z,13.68
2023-03-03T01:37:01.575Z,14.65
2023-03-03T01:39:28.910Z,14.00
2023-03-03T01:41:56.761Z,14.10
2023-03-03T01:44:24.197Z,13.75
2023-03-03T01:46:55.774Z,12.82
2023-03-03T01:49:29.738Z,13.68
2023-03-03T01:52:00.135Z,13.52
2023-03-03T01:54:30.628Z,13.70
2023-03-03T01:57:01.581Z,13.80
2023-03-03T01:59:32.357Z,14.48
2023-03-03T02:01:59.779Z,13.38
2023-03-03T02:04:28.837Z,12.93
2023-03-03T02:07:01.865Z,12.80
2023-03-03T02:09:51.075Z,12.90
2023-03-03T02:12:20.937Z,12.90
2023-03-03T02:14:48.324Z,12.63
2023-03-03T02:17:16.402Z,12.60
2023-03-03T02:19:49.108Z,11.82
2023-03-03T02:22:18.563Z,13.32
2023-03-03T02:24:59.065Z,12.98
2023-03-03T02:27:28.224Z,12.57
2023-03-03T02:29:55.923Z,13.25
2023-03-03T02:32:23.400Z,13.23
2023-03-03T02:34:52.477Z,12.80
2023-03-03T02:37:20.815Z,12.20
2023-03-03T02:39:48.225Z,13.65
2023-03-03T02:42:20.460Z,14.07
2023-03-03T02:44:49.131Z,12.37
2023-03-03T02:47:16.746Z,13.32
2023-03-03T02:49:45.195Z,12.88
2023-03-03T02:52:14.728Z,12.93
2023-03-03T02:54:42.609Z,12.27
2023-03-03T02:57:10.084Z,12.32
2023-03-03T02:59:37.821Z,12.18
2023-03-03T03:02:07.335Z,12.48
2023-03-03T03:04:35.773Z,12.73
2023-03-03T03:07:04.744Z,11.75
2023-03-03T03:09:32.670Z,11.57
2023-03-03T03:12:02.475Z,11.95
2023-03-03T03:14:31.017Z,12.13
2023-03-03T03:16:59.256Z,12.18
2023-03-03T03:19:28.168Z,12.52
2023-03-03T03:21:56.133Z,12.57
2023-03-03T03:24:23.714Z,12.30
2023-03-03T03:26:52.397Z,11.88
2023-03-03T03:29:20.153Z,12.60
2023-03-03T03:31:47.938Z,11.18
2023-03-03T03:34:15.364Z,11.38
2023-03-03T03:36:46.532Z,12.35
2023-03-03T03:39:14.397Z,10.00
2023-03-03T03:41:42.442Z,11.95
2023-03-03T03:44:10.218Z,11.82
2023-03-03T03:46:38.175Z,10.73
2023-03-03T03:49:06.380Z,11.60
2023-03-03T03:51:35.562Z,10.60
2023-03-03T03:54:03.391Z,10.90
2023-03-03T03:56:31.913Z,12.30
2023-03-03T03:59:00.927Z,11.70
2023-03-03T04:01:28.742Z,9.90
2023-03-03T04:03:57.249Z,10.25
2023-03-03T04:06:25.335Z,10.48
2023-03-03T04:08:53.033Z,10.68
2023-03-03T04:11:21.325Z,10.10
2023-03-03T04:13:48.819Z,11.60
2023-03-03T04:16:16.662Z,10.63
2023-03-03T04:18:46.560Z,11.65
2023-03-03T04:21:15.321Z,11.50
2023-03-03T04:23:43.222Z,9.98
2023-03-03T04:26:11.384Z,13.27
2023-03-03T04:28:39.461Z,11.70
2023-03-03T04:31:07.130Z,13.10
2023-03-03T04:33:35.047Z,11.88
2023-03-03T04:36:03.053Z,11.73
2023-03-03T04:38:30.506Z,12.57
2023-03-03T04:40:58.340Z,15.45
2023-03-03T04:43:26.207Z,18.42
2023-03-03T04:45:54.091Z,16.92
2023-03-03T04:48:21.899Z,15.07
2023-03-03T04:50:49.531Z,14.68
2023-03-03T04:53:16.996Z,12.80
2023-03-03T04:55:44.901Z,14.05
2023-03-03T04:58:12.593Z,15.73
2023-03-03T05:00:40.127Z,14.63
2023-03-03T05:03:10.655Z,15.05
2023-03-03T05:05:40.985Z,15.07
2023-03-03T05:08:08.630Z,14.32
2023-03-03T05:10:36.028Z,15.10
2023-03-03T05:13:03.507Z,14.30
2023-03-03T05:15:31.648Z,13.95
2023-03-03T05:17:59.205Z,13.48
2023-03-03T05:20:26.842Z,13.52
2023-03-03T05:22:54.886Z,13.90
2023-03-03T05:25:22.305Z,13.60
2023-03-03T05:27:50.049Z,14.98
2023-03-03T05:30:17.812Z,13.38
2023-03-03T05:32:46.725Z,14.23
2023-03-03T05:35:14.315Z,14.10
2023-03-03T05:37:46.810Z,14.57
2023-03-03T05:42:42.449Z,14.02
2023-03-03T05:45:10.200Z,15.57
2023-03-03T05:47:37.987Z,14.75
2023-03-03T05:50:05.942Z,15.68
2023-03-03T05:52:33.370Z,16.85
2023-03-03T05:55:00.757Z,17.17
2023-03-03T05:57:28.473Z,14.93
2023-03-03T05:59:55.901Z,13.88
2023-03-03T06:02:23.253Z,11.85
2023-03-03T06:04:51.165Z,11.88
2023-03-03T06:07:18.551Z,11.65
2023-03-03T06:09:45.976Z,11.93
2023-03-03T06:12:13.613Z,10.45
2023-03-03T06:14:41.022Z,11.60
2023-03-03T06:17:08.359Z,11.38
2023-03-03T06:19:36.705Z,12.18
2023-03-03T06:22:04.097Z,15.65
2023-03-03T06:24:31.609Z,13.77
2023-03-03T06:26:59.410Z,12.75
2023-03-03T06:29:27.655Z,13.48
2023-03-03T06:31:55.384Z,12.43
2023-03-03T06:34:23.162Z,12.57
2023-03-03T06:36:50.671Z,13.50
2023-03-03T06:39:18.124Z,12.77
2023-03-03T06:41:45.749Z,16.08
2023-03-03T06:44:13.168Z,15.85
2023-03-03T06:46:40.534Z,16.45
2023-03-03T06:49:08.244Z,15.25
2023-03-03T06:51:39.845Z,14.25
2023-03-03T06:54:12.395Z,18.07
2023-03-03T06:56:41.175Z,20.48
2023-03-03T06:59:16.552Z,20.73
2023-03-03T07:01:45.973Z,20.58
2023-03-03T07:04:19.523Z,18.37
2023-03-03T07:06:47.215Z,18.25
2023-03-03T07:09:24.053Z,17.60
2023-03-03T07:11:52.902Z,17.45
2023-03-03T07:14:21.190Z,16.58
2023-03-03T07:16:54.975Z,16.02
2023-03-03T07:19:34.950Z,15.68
2023-03-03T07:22:16.918Z,17.27
2023-03-03T07:24:53.211Z,16.02
2023-03-03T07:27:24.994Z,33.95
2023-03-03T07:29:56.245Z,25.08
2023-03-03T07:32:40.440Z,21.40
2023-03-03T07:35:25.631Z,21.17
2023-03-03T07:37:53.044Z,20.60
2023-03-03T07:40:45.000Z,21.02
2023-03-03T07:43:28.464Z,19.80
2023-03-03T07:46:14.986Z,19.02
2023-03-03T07:48:42.874Z,20.50
2023-03-03T07:51:22.593Z,20.85
2023-03-03T07:53:50.259Z,19.85
2023-03-03T07:56:28.714Z,22.23
2023-03-03T07:58:57.468Z,20.33
2023-03-03T08:01:43.888Z,20.75
2023-03-03T08:04:38.180Z,20.12
2023-03-03T08:07:12.277Z,20.05
2023-03-03T08:10:01.833Z,22.33
2023-03-03T08:12:39.218Z,22.00
2023-03-03T08:15:20.422Z,21.35
2023-03-03T08:17:48.863Z,22.35
2023-03-03T08:20:34.705Z,19.92
2023-03-03T08:23:02.094Z,31.35
2023-03-03T08:25:29.846Z,24.73
2023-03-03T08:27:57.238Z,24.65
2023-03-03T08:30:24.642Z,19.85
2023-03-03T08:32:52.342Z,18.85
2023-03-03T08:35:19.946Z,18.37
2023-03-03T08:37:47.325Z,16.50
2023-03-03T08:40:15.191Z,14.50
2023-03-03T08:42:42.537Z,14.87
2023-03-03T08:45:09.957Z,17.73
2023-03-03T08:47:38.790Z,16.17
2023-03-03T08:50:06.633Z,14.75
2023-03-03T08:52:34.362Z,15.43
2023-03-03T08:55:02.693Z,14.93
2023-03-03T08:57:30.129Z,15.55
2023-03-03T08:59:57.647Z,15.90
2023-03-03T09:02:25.280Z,14.40
2023-03-03T09:04:52.745Z,17.77
2023-03-03T09:07:20.173Z,17.30
2023-03-03T09:09:47.818Z,15.77
2023-03-03T09:12:21.547Z,15.55
2023-03-03T09:14:51.088Z,15.18
2023-03-03T09:17:33.293Z,14.75
2023-03-03T09:22:36.792Z,16.98
2023-03-03T09:25:19.218Z,15.95
2023-03-03T09:27:46.594Z,15.95
2023-03-03T09:30:26.447Z,17.52
2023-03-03T09:32:56.660Z,15.88
2023-03-03T09:35:38.710Z,16.55
2023-03-03T09:38:27.561Z,16.65
2023-03-03T09:41:04.349Z,14.40
2023-03-03T09:44:01.101Z,14.93
2023-03-03T09:46:43.585Z,14.50
2023-03-03T09:49:27.664Z,14.63
2023-03-03T09:51:58.217Z,13.10
2023-03-03T09:54:34.161Z,13.80
2023-03-03T09:57:22.506Z,14.23
2023-03-03T10:00:08.549Z,14.77
2023-03-03T10:02:52.958Z,14.23
2023-03-03T10:05:36.267Z,13.45
2023-03-03T10:08:18.060Z,12.48
2023-03-03T10:11:02.058Z,9.95
2023-03-03T10:13:47.543Z,10.98
2023-03-03T10:17:06.382Z,13.30
2023-03-03T10:20:00.202Z,10.93
2023-03-03T10:22:39.476Z,10.48
2023-03-03T10:25:37.776Z,12.00
2023-03-03T10:28:13.603Z,10.95
2023-03-03T10:30:58.228Z,10.05
2023-03-03T10:33:40.831Z,10.10
2023-03-03T10:36:41.580Z,10.05
2023-03-03T10:39:21.281Z,9.40
2023-03-03T10:42:22.422Z,9.82
2023-03-03T10:45:05.310Z,10.63
2023-03-03T10:47:44.724Z,9.10
2023-03-03T10:50:21.654Z,10.30
2023-03-03T10:52:58.951Z,10.65
2023-03-03T10:55:42.624Z,10.05
2023-03-03T10:58:32.430Z,10.70
2023-03-03T11:01:06.794Z,12.40
2023-03-03T11:03:49.937Z,15.07
2023-03-03T11:06:36.509Z,15.85
2023-03-03T11:09:15.534Z,17.05
2023-03-03T11:11:55.535Z,11.77
2023-03-03T11:14:35.637Z,10.95
2023-03-03T11:17:05.736Z,9.52
2023-03-03T11:19:52.746Z,10.25
2023-03-03T11:22:39.820Z,10.88
2023-03-03T11:25:23.598Z,10.52
2023-03-03T11:28:12.681Z,10.82
2023-03-03T11:31:07.550Z,11.73
2023-03-03T11:33:51.910Z,14.73
2023-03-03T11:36:32.326Z,11.18
2023-03-03T11:39:12.098Z,10.13
2023-03-03T11:41:51.499Z,9.02
2023-03-03T11:44:27.623Z,8.35
2023-03-03T11:47:19.394Z,7.53
2023-03-03T11:49:51.676Z,7.62
2023-03-03T11:52:49.042Z,7.82
2023-03-03T11:55:34.057Z,10.07
2023-03-03T11:58:14.439Z,8.95
2023-03-03T12:00:48.442Z,8.65
2023-03-03T12:03:30.698Z,7.78
2023-03-03T12:06:13.384Z,7.72
2023-03-03T12:08:55.993Z,7.70
2023-03-03T12:11:31.790Z,9.02
2023-03-03T12:14:18.256Z,10.43
2023-03-03T12:16:55.004Z,13.32
2023-03-03T12:19:32.018Z,11.40
2023-03-03T12:22:17.580Z,8.18
2023-03-03T12:25:03.798Z,9.38
2023-03-03T12:27:49.076Z,8.48
2023-03-03T12:30:27.148Z,8.55
2023-03-03T12:33:12.857Z,10.52
2023-03-03T12:35:58.074Z,10.50
2023-03-03T12:38:28.536Z,11.45
2023-03-03T12:41:21.629Z,16.08
2023-03-03T12:44:01.211Z,9.20
2023-03-03T12:46:56.883Z,9.13
2023-03-03T12:49:42.775Z,8.63
2023-03-03T12:52:26.748Z,8.48
2023-03-03T12:55:30.170Z,9.25
2023-03-03T12:58:28.890Z,9.05
2023-03-03T13:01:17.674Z,8.98
2023-03-03T13:04:05.197Z,9.60
2023-03-03T13:06:44.861Z,9.45
2023-03-03T13:09:54.079Z,9.68
2023-03-03T13:12:36.050Z,9.85
2023-03-03T13:15:33.284Z,9.73
2023-03-03T13:18:25.320Z,9.85
2023-03-03T13:21:02.220Z,10.85
2023-03-03T13:23:38.389Z,10.75
2023-03-03T13:26:33.725Z,10.75
2023-03-03T13:29:10.548Z,10.52
2023-03-03T13:31:47.885Z,11.20
2023-03-03T13:34:24.626Z,10.77
2023-03-03T13:37:32.411Z,10.40
2023-03-03T13:40:20.125Z,10.93
2023-03-03T13:42:52.302Z,10.80
2023-03-03T13:45:32.937Z,11.63
2023-03-03T13:48:03.904Z,11.05
2023-03-03T13:50:53.993Z,11.88
2023-03-03T13:53:52.187Z,11.10
2023-03-03T13:56:33.326Z,11.68
2023-03-03T13:59:18.471Z,11.02
2023-03-03T14:02:01.778Z,10.88
2023-03-03T14:04:35.471Z,10.35
2023-03-03T14:07:14.446Z,10.45
2023-03-03T14:09:44.115Z,10.10
2023-03-03T14:12:38.974Z,10.77
2023-03-03T14:15:23.691Z,10.07
2023-03-03T14:18:03.936Z,10.93
2023-03-03T14:20:34.851Z,10.43
2023-03-03T14:23:04.359Z,9.88
2023-03-03T14:25:52.806Z,10.73
2023-03-03T14:28:31.213Z,10.25
2023-03-03T14:31:14.927Z,10.57
2023-03-03T14:33:44.710Z,10.65
2023-03-03T14:36:13.291Z,15.32
2023-03-03T14:38:44.796Z,12.40
2023-03-03T14:41:12.348Z,10.98
2023-03-03T14:43:41.791Z,12.23
2023-03-03T14:46:44.841Z,12.10
2023-03-03T14:49:30.747Z,12.63
2023-03-03T14:52:22.398Z,13.70
2023-03-03T14:54:55.631Z,14.40
2023-03-03T14:57:51.197Z,14.32
2023-03-03T15:00:22.137Z,13.85
2023-03-03T15:02:52.252Z,13.60
2023-03-03T15:05:28.025Z,12.70
2023-03-03T15:08:03.254Z,13.95
2023-03-03T15:10:39.215Z,14.15
2023-03-03T15:13:22.006Z,13.73
2023-03-03T15:16:00.954Z,15.30
2023-03-03T15:18:30.058Z,15.48
2023-03-03T15:21:05.890Z,13.40
2023-03-03T15:23:33.192Z,15.10
2023-03-03T15:26:06.554Z,15.85
2023-03-03T15:28:52.402Z,14.77
2023-03-03T15:31:32.140Z,14.10
2023-03-03T15:34:12.592Z,14.35
2023-03-03T15:36:55.549Z,14.45
2023-03-03T15:39:47.292Z,13.60
2023-03-03T15:42:43.316Z,14.65
2023-03-03T15:45:31.701Z,16.35
2023-03-03T15:48:43.884Z,14.55
2023-03-03T15:51:31.360Z,13.75
2023-03-03T15:53:58.938Z,13.82
2023-03-03T15:56:26.293Z,14.30
2023-03-03T15:59:18.468Z,15.15
2023-03-03T16:01:57.436Z,14.18
2023-03-03T16:04:29.487Z,14.32
2023-03-03T16:07:06.026Z,14.32
2023-03-03T16:09:39.852Z,15.35
2023-03-03T16:12:28.761Z,17.52
2023-03-03T16:15:21.932Z,18.00
2023-03-03T16:18:11.358Z,16.60
2023-03-03T16:20:52.546Z,18.12
2023-03-03T16:23:32.316Z,20.80
2023-03-03T16:26:30.350Z,19.30
2023-03-03T16:29:36.086Z,17.62
2023-03-03T16:32:12.592Z,40.95
2023-03-03T16:34:48.671Z,32.55
2023-03-03T16:37:40.798Z,31.45
2023-03-03T16:40:13.716Z,25.10
2023-03-03T16:42:44.624Z,19.52
2023-03-03T16:45:25.213Z,19.05
2023-03-03T16:48:08.260Z,18.80
2023-03-03T16:53:40.903Z,20.65
2023-03-03T16:56:17.222Z,21.17
2023-03-03T16:59:11.381Z,23.95
2023-03-03T17:02:12.026Z,21.25
2023-03-03T17:04:59.110Z,21.73
2023-03-03T17:07:56.070Z,21.60
2023-03-03T17:10:28.183Z,22.55
2023-03-03T17:13:01.958Z,22.98
2023-03-03T17:15:46.408Z,24.15
2023-03-03T17:18:45.061Z,25.58
2023-03-03T17:21:36.737Z,22.70
2023-03-03T17:24:25.678Z,24.30
2023-03-03T17:27:18.679Z,23.87
2023-03-03T17:32:22.684Z,23.02
2023-03-03T17:35:21.345Z,24.00
2023-03-03T17:38:10.984Z,24.60
2023-03-03T17:40:41.362Z,22.30
2023-03-03T17:43:39.233Z,21.37
2023-03-03T17:46:15.032Z,21.73
2023-03-03T17:48:58.061Z,19.90
2023-03-03T17:52:04.621Z,20.58
2023-03-03T17:54:44.008Z,20.85
2023-03-03T17:57:26.880Z,22.45
2023-03-03T18:00:17.014Z,25.50
2023-03-03T18:03:18.357Z,28.12
2023-03-03T18:06:04.110Z,26.52
2023-03-03T18:08:46.683Z,25.42
2023-03-03T18:11:29.568Z,24.80
2023-03-03T18:14:02.656Z,26.70
2023-03-03T18:16:41.106Z,24.70
2023-03-03T18:19:39.790Z,29.48
2023-03-03T18:22:11.718Z,29.27
2023-03-03T18:24:54.670Z,27.98
2023-03-03T18:30:07.623Z,27.67
2023-03-03T18:35:32.902Z,39.97
2023-03-03T18:38:15.839Z,43.65
2023-03-03T18:41:11.117Z,44.25
2023-03-03T18:43:44.650Z,42.72
2023-03-03T18:46:22.611Z,40.97
2023-03-03T18:49:06.254Z,37.88
2023-03-03T18:51:37.050Z,38.53
2023-03-03T18:54:21.879Z,39.25
2023-03-03T18:56:59.916Z,36.53
2023-03-03T18:59:36.340Z,36.42
2023-03-03T19:02:12.810Z,37.60
2023-03-03T19:04:45.779Z,38.45
2023-03-03T19:07:29.672Z,36.55
2023-03-03T19:10:02.728Z,35.83
2023-03-03T19:12:57.897Z,35.05
2023-03-03T19:15:31.977Z,32.83
2023-03-03T19:18:15.004Z,32.38
2023-03-03T19:20:45.698Z,33.25
2023-03-03T19:23:22.677Z,36.28
2023-03-03T19:26:30.432Z,38.47
2023-03-03T19:29:07.102Z,38.33
2023-03-03T19:31:45.587Z,38.25
2023-03-03T19:34:45.917Z,36.38
2023-03-03T19:37:40.880Z,37.60
2023-03-03T19:40:14.277Z,35.97
2023-03-03T19:42:47.591Z,36.83
2023-03-03T19:45:18.214Z,37.17
2023-03-03T19:47:56.107Z,34.65
2023-03-03T19:50:33.220Z,34.00
2023-03-03T19:53:25.324Z,34.58
2023-03-03T19:56:18.522Z,34.33
2023-03-03T20:01:51.211Z,35.17
2023-03-03T20:04:42.926Z,36.25
2023-03-03T20:07:17.554Z,35.20
2023-03-03T20:09:47.852Z,36.60
2023-03-03T20:12:24.340Z,38.78
2023-03-03T20:15:01.973Z,39.47
2023-03-03T20:17:51.065Z,37.95
2023-03-03T20:20:43.479Z,37.38
2023-03-03T20:23:32.895Z,35.28
2023-03-03T20:26:14.566Z,38.00
2023-03-03T20:28:48.118Z,40.50
2023-03-03T20:31:35.995Z,42.33
2023-03-03T20:34:18.633Z,43.42
2023-03-03T20:36:58.918Z,42.33
2023-03-03T20:39:50.772Z,40.15
2023-03-03T20:42:33.167Z,39.77
2023-03-03T20:45:52.750Z,38.63
2023-03-03T20:48:57.985Z,38.45
2023-03-03T20:51:46.808Z,40.00
2023-03-03T20:54:23.297Z,37.97
2023-03-03T20:56:59.991Z,36.25
2023-03-03T20:59:35.673Z,34.35
2023-03-03T21:02:18.370Z,31.27
2023-03-03T21:04:46.040Z,30.75
2023-03-03T21:07:24.731Z,28.02
2023-03-03T21:10:23.974Z,25.65
2023-03-03T21:12:55.976Z,27.42
2023-03-03T21:15:25.458Z,27.55
2023-03-03T21:17:54.917Z,28.75
2023-03-03T21:20:25.231Z,26.98
2023-03-03T21:22:53.157Z,28.80
2023-03-03T21:25:45.333Z,28.50
2023-03-03T21:28:20.552Z,27.27
2023-03-03T21:31:16.791Z,27.65
2023-03-03T21:33:52.612Z,29.17
2023-03-03T21:36:32.222Z,28.67
2023-03-03T21:39:02.148Z,29.92
2023-03-03T21:41:50.855Z,30.35
2023-03-03T21:44:30.768Z,31.75
2023-03-03T21:46:58.727Z,32.33
2023-03-03T21:49:26.678Z,33.20
2023-03-03T21:51:57.642Z,33.38
2023-03-03T21:54:25.106Z,35.85
2023-03-03T21:56:53.193Z,34.05
2023-03-03T21:59:20.639Z,33.25
2023-03-03T22:02:04.105Z,31.77
2023-03-03T22:04:35.322Z,33.25
2023-03-03T22:07:02.751Z,32.92
2023-03-03T22:09:30.200Z,31.90
2023-03-03T22:11:57.898Z,32.67
2023-03-03T22:14:25.246Z,32.03
2023-03-03T22:16:52.837Z,32.88
2023-03-03T22:19:20.567Z,32.58
2023-03-03T22:21:49.633Z,32.97
2023-03-03T22:24:17.862Z,31.62
2023-03-03T22:26:45.494Z,31.10
2023-03-03T22:29:13.001Z,32.92
2023-03-03T22:31:40.440Z,31.17
2023-03-03T22:34:08.534Z,32.75
2023-03-03T22:36:35.910Z,33.78
2023-03-03T22:39:03.366Z,33.17
2023-03-03T22:41:31.300Z,34.25
2023-03-03T22:43:58.781Z,34.80
2023-03-03T22:46:26.241Z,33.58
2023-03-03T22:48:53.994Z,31.30
2023-03-03T22:51:24.374Z,33.33
2023-03-03T22:53:51.799Z,34.03
2023-03-03T22:56:19.449Z,32.33
2023-03-03T22:58:46.970Z,33.25
2023-03-03T23:01:14.319Z,29.48
2023-03-03T23:03:41.933Z,31.48
2023-03-03T23:06:09.311Z,30.85
2023-03-03T23:08:36.948Z,30.90
2023-03-03T23:11:04.698Z,29.10
2023-03-03T23:13:32.593Z,28.77
2023-03-03T23:16:00.325Z,29.70
2023-03-03T23:18:28.643Z,28.05
2023-03-03T23:20:56.594Z,27.83
2023-03-03T23:23:24.161Z,28.30
2023-03-03T23:25:51.807Z,28.48
2023-03-03T23:28:19.354Z,29.27
2023-03-03T23:30:46.844Z,28.40
2023-03-03T23:33:14.757Z,29.15
2023-03-03T23:35:42.162Z,28.27
2023-03-03T23:38:15.128Z,30.00
2023-03-03T23:40:42.996Z,29.95
2023-03-03T23:43:10.436Z,30.08
2023-03-03T23:45:37.936Z,30.33
2023-03-03T23:48:06.110Z,29.92
2023-03-03T23:50:37.095Z,28.17
2023-03-03T23:53:05.384Z,26.90
2023-03-03T23:55:33.133Z,27.55
2023-03-03T23:58:00.586Z,23.90
